Time;durP1;ratioP1;P1;durP2;ratioP2;P2;SDS_P1;SDS_P2;PMS_P1;PMS_P2;Temp;Humidity;BMP_temperature;BMP_pressure;BME280_temperature;BME280_humidity;BME280_pressure;Samples;Min_cycle;Max_cycle;Signal;HPM_P1;HPM_P2
2021/10/07 00:00:07;;;;;;;58.78;5.82;;;;;;;;;;5048333;28;20441;-41
2021/10/07 00:02:35;;;;;;;44.55;6.07;;;;;;;;;;5043851;28;20068;-46
2021/10/07 00:05:02;;;;;;;46.88;5.97;;;;;;;;;;5046781;28;20045;-41
2021/10/07 00:07:30;;;;;;;51.78;6.25;;;;;;;;;;5045534;28;20052;-48
2021/10/07 00:09:57;;;;;;;36.22;5.60;;;;;;;;;;5040582;28;20024;-41
2021/10/07 00:12:23;;;;;;;40.20;6.35;;;;;;;;;;5043394;28;20029;-42
2021/10/07 00:14:50;;;;;;;39.53;6.07;;;;;;;;;;5044248;28;20548;-41
2021/10/07 00:17:18;;;;;;;43.05;6.03;;;;;;;;;;5046020;28;20060;-41
2021/10/07 00:19:44;;;;;;;41.88;6.25;;;;;;;;;;5046198;28;20083;-43
2021/10/07 00:22:11;;;;;;;38.70;5.63;;;;;;;;;;5043002;28;20404;-45
2021/10/07 00:24:38;;;;;;;33.22;5.38;;;;;;;;;;5044397;28;20067;-50
2021/10/07 00:27:06;;;;;;;31.55;5.43;;;;;;;;;;5045824;28;20473;-41
2021/10/07 00:32:34;;;;;;;50.88;6.15;;;;;;;;;;5043744;28;20069;-42
2021/10/07 00:35:20;;;;;;;39.85;6.05;;;;;;;;;;5047387;28;20048;-41
2021/10/07 00:40:32;;;;;;;39.65;5.25;;;;;;;;;;5046997;28;20075;-44
2021/10/07 00:42:59;;;;;;;50.00;6.57;;;;;;;;;;5047827;28;20052;-46
2021/10/07 00:45:26;;;;;;;37.05;5.85;;;;;;;;;;5048308;28;20540;-50
2021/10/07 00:47:53;;;;;;;48.20;5.63;;;;;;;;;;5049563;28;20020;-42
2021/10/07 00:50:20;;;;;;;44.28;5.25;;;;;;;;;;5049389;28;20029;-41
2021/10/07 00:52:47;;;;;;;43.55;5.70;;;;;;;;;;5033878;28;20061;-41
2021/10/07 00:55:15;;;;;;;44.95;6.47;;;;;;;;;;5047826;28;20013;-43
2021/10/07 00:57:42;;;;;;;39.75;5.35;;;;;;;;;;5045286;28;20024;-41
2021/10/07 01:00:09;;;;;;;52.05;6.28;;;;;;;;;;5047837;28;20097;-43
2021/10/07 01:02:37;;;;;;;43.78;7.55;;;;;;;;;;5050419;28;20038;-41
2021/10/07 01:05:06;;;;;;;58.35;6.53;;;;;;;;;;5049457;28;20117;-41
2021/10/07 01:07:33;;;;;;;48.88;6.35;;;;;;;;;;5050130;28;20005;-43
2021/10/07 01:10:00;;;;;;;41.58;5.47;;;;;;;;;;5049158;28;20472;-42
2021/10/07 01:12:27;;;;;;;46.10;5.97;;;;;;;;;;5048733;28;20095;-40
2021/10/07 01:14:54;;;;;;;43.88;5.78;;;;;;;;;;5045000;28;20464;-48
2021/10/07 01:17:23;;;;;;;46.88;7.25;;;;;;;;;;5031730;28;20029;-41
2021/10/07 01:19:51;;;;;;;50.20;6.78;;;;;;;;;;5044823;28;20556;-41
2021/10/07 01:22:19;;;;;;;52.83;7.78;;;;;;;;;;5047857;28;20089;-45
2021/10/07 01:24:46;;;;;;;46.72;6.90;;;;;;;;;;5030708;28;20029;-45
2021/10/07 01:27:14;;;;;;;48.03;7.03;;;;;;;;;;5047083;28;20029;-44
2021/10/07 01:29:41;;;;;;;49.20;7.22;;;;;;;;;;5045932;28;20100;-45
2021/10/07 01:32:09;;;;;;;45.88;6.88;;;;;;;;;;5051088;28;20068;-42
2021/10/07 01:34:36;;;;;;;45.88;7.05;;;;;;;;;;5049792;28;20036;-41
2021/10/07 01:37:03;;;;;;;57.53;6.90;;;;;;;;;;5046151;28;20017;-44
2021/10/07 01:39:30;;;;;;;46.92;6.53;;;;;;;;;;5049262;28;20032;-44
2021/10/07 01:41:58;;;;;;;46.17;6.72;;;;;;;;;;5046114;28;20017;-41
2021/10/07 01:44:25;;;;;;;63.22;6.82;;;;;;;;;;5046002;28;20074;-44
2021/10/07 01:46:53;;;;;;;47.80;7.78;;;;;;;;;;5049090;28;20021;-43
2021/10/07 01:49:20;;;;;;;41.28;6.20;;;;;;;;;;5047773;28;20081;-42
2021/10/07 01:51:48;;;;;;;41.45;6.50;;;;;;;;;;5038958;28;20509;-41
2021/10/07 01:54:15;;;;;;;40.25;5.80;;;;;;;;;;5046393;28;20523;-43
2021/10/07 01:56:42;;;;;;;35.08;6.38;;;;;;;;;;5045203;28;20119;-42
2021/10/07 01:59:10;;;;;;;35.17;5.63;;;;;;;;;;5048607;28;20008;-42
2021/10/07 02:01:37;;;;;;;41.15;6.60;;;;;;;;;;5044418;28;20043;-40
2021/10/07 02:04:06;;;;;;;59.00;7.18;;;;;;;;;;5044748;28;20036;-42
2021/10/07 02:06:36;;;;;;;41.40;6.45;;;;;;;;;;5041543;28;20037;-42
2021/10/07 02:09:04;;;;;;;42.25;6.35;;;;;;;;;;5043515;28;20018;-43
2021/10/07 02:11:31;;;;;;;52.83;6.55;;;;;;;;;;5039318;28;20036;-43
2021/10/07 02:14:00;;;;;;;48.65;6.57;;;;;;;;;;5013944;28;20030;-48
2021/10/07 02:16:28;;;;;;;48.13;6.35;;;;;;;;;;5014544;28;20033;-47
2021/10/07 02:18:55;;;;;;;45.83;6.40;;;;;;;;;;5030425;28;20026;-47
2021/10/07 02:21:22;;;;;;;50.28;6.88;;;;;;;;;;5031371;28;20100;-44
2021/10/07 02:23:50;;;;;;;56.15;8.43;;;;;;;;;;5044574;28;20029;-42
2021/10/07 02:26:17;;;;;;;49.90;7.30;;;;;;;;;;5050206;28;20029;-54
2021/10/07 02:28:44;;;;;;;53.30;7.10;;;;;;;;;;5051298;28;20025;-42
2021/10/07 02:31:11;;;;;;;42.70;6.72;;;;;;;;;;5051384;28;20055;-45
2021/10/07 02:33:38;;;;;;;50.90;8.23;;;;;;;;;;5051608;28;20409;-43
2021/10/07 02:36:06;;;;;;;57.60;7.78;;;;;;;;;;5051807;28;20107;-49
2021/10/07 02:38:33;;;;;;;49.53;7.60;;;;;;;;;;5051013;28;20013;-47
2021/10/07 02:41:00;;;;;;;53.83;7.78;;;;;;;;;;5048379;28;20078;-47
2021/10/07 02:43:27;;;;;;;47.95;8.20;;;;;;;;;;5042147;28;20103;-43
2021/10/07 02:45:54;;;;;;;49.83;7.78;;;;;;;;;;5047797;28;20083;-43
2021/10/07 02:48:21;;;;;;;42.63;7.72;;;;;;;;;;5050609;28;20400;-42
2021/10/07 02:50:48;;;;;;;45.67;8.10;;;;;;;;;;5051484;28;20465;-42
2021/10/07 02:53:15;;;;;;;45.38;7.05;;;;;;;;;;5050758;28;20024;-45
2021/10/07 02:55:42;;;;;;;43.55;7.57;;;;;;;;;;5050138;28;20047;-42
2021/10/07 02:58:09;;;;;;;43.92;8.18;;;;;;;;;;5050214;28;20055;-47
2021/10/07 03:00:36;;;;;;;42.50;7.70;;;;;;;;;;5051220;28;20031;-42
2021/10/07 03:03:03;;;;;;;49.55;7.65;;;;;;;;;;5051032;28;20044;-44
2021/10/07 03:05:30;;;;;;;46.92;7.43;;;;;;;;;;5023931;28;20051;-48
2021/10/07 03:07:57;;;;;;;38.08;7.82;;;;;;;;;;5050330;28;20066;-58
2021/10/07 03:10:24;;;;;;;47.90;7.63;;;;;;;;;;5032061;28;20133;-45
2021/10/07 03:12:51;;;;;;;48.10;9.23;;;;;;;;;;5050292;28;20036;-47
2021/10/07 03:15:19;;;;;;;34.03;7.00;;;;;;;;;;5050875;28;20108;-43
2021/10/07 03:17:46;;;;;;;46.35;7.90;;;;;;;;;;5050446;28;20044;-44
2021/10/07 03:20:13;;;;;;;41.47;8.20;;;;;;;;;;5050868;28;20414;-42
2021/10/07 03:22:41;;;;;;;38.53;7.32;;;;;;;;;;5050604;28;20017;-42
2021/10/07 03:25:08;;;;;;;43.33;8.15;;;;;;;;;;5051177;28;20043;-46
2021/10/07 03:27:35;;;;;;;45.28;7.93;;;;;;;;;;5030408;28;20028;-46
2021/10/07 03:30:03;;;;;;;36.72;7.63;;;;;;;;;;5050550;28;20041;-43
2021/10/07 03:32:30;;;;;;;35.95;7.78;;;;;;;;;;5050855;28;20481;-46
2021/10/07 03:34:57;;;;;;;41.97;8.50;;;;;;;;;;5050955;28;20078;-48
2021/10/07 03:37:24;;;;;;;41.00;7.90;;;;;;;;;;5050509;28;20029;-44
2021/10/07 03:39:51;;;;;;;40.20;7.82;;;;;;;;;;5051192;28;20018;-47
2021/10/07 03:42:18;;;;;;;36.63;8.38;;;;;;;;;;5049820;28;20091;-44
2021/10/07 03:44:45;;;;;;;32.38;7.57;;;;;;;;;;5041240;28;20013;-43
2021/10/07 03:47:12;;;;;;;29.17;7.40;;;;;;;;;;5049822;28;20025;-49
2021/10/07 03:49:39;;;;;;;31.45;7.32;;;;;;;;;;5049507;28;20017;-48
2021/10/07 03:52:06;;;;;;;34.63;8.55;;;;;;;;;;5050008;28;20112;-45
2021/10/07 03:54:33;;;;;;;32.95;7.55;;;;;;;;;;5050204;28;20040;-48
2021/10/07 03:57:00;;;;;;;31.40;7.32;;;;;;;;;;5047844;28;20385;-46
2021/10/07 03:59:27;;;;;;;33.88;8.30;;;;;;;;;;5043466;28;20017;-42
2021/10/07 04:01:54;;;;;;;36.97;8.23;;;;;;;;;;5049710;28;20099;-45
2021/10/07 04:04:21;;;;;;;32.85;8.25;;;;;;;;;;5049887;28;20424;-44
2021/10/07 04:06:48;;;;;;;33.72;8.18;;;;;;;;;;5049939;28;20108;-43
2021/10/07 04:09:15;;;;;;;35.72;8.05;;;;;;;;;;5055219;28;20017;-45
2021/10/07 04:11:42;;;;;;;38.08;8.07;;;;;;;;;;5055303;28;20041;-45
2021/10/07 04:14:09;;;;;;;31.17;7.38;;;;;;;;;;5055290;28;20096;-58
2021/10/07 04:16:37;;;;;;;36.38;8.57;;;;;;;;;;5055245;28;20059;-45
2021/10/07 04:19:04;;;;;;;31.55;8.48;;;;;;;;;;5055535;28;20028;-44
2021/10/07 04:21:31;;;;;;;26.60;7.15;;;;;;;;;;5054902;28;20040;-43
2021/10/07 04:23:59;;;;;;;26.73;7.65;;;;;;;;;;5054679;28;20021;-44
2021/10/07 04:26:27;;;;;;;31.13;7.57;;;;;;;;;;5047539;28;20025;-42
2021/10/07 04:28:54;;;;;;;36.50;7.97;;;;;;;;;;5054230;28;20021;-44
2021/10/07 04:31:21;;;;;;;29.02;7.72;;;;;;;;;;5053770;28;20049;-42
2021/10/07 04:33:48;;;;;;;27.83;8.00;;;;;;;;;;5054403;28;20017;-41
2021/10/07 04:36:15;;;;;;;30.98;7.70;;;;;;;;;;5054117;28;20028;-41
2021/10/07 04:38:42;;;;;;;31.40;7.60;;;;;;;;;;5054403;28;20029;-43
2021/10/07 04:41:09;;;;;;;32.78;8.00;;;;;;;;;;5054504;28;20020;-43
2021/10/07 04:43:38;;;;;;;32.33;7.82;;;;;;;;;;5042796;28;20117;-43
2021/10/07 04:46:05;;;;;;;29.73;8.35;;;;;;;;;;5059575;28;20036;-47
2021/10/07 04:48:32;;;;;;;33.75;8.45;;;;;;;;;;5054797;28;20098;-53
2021/10/07 04:50:59;;;;;;;33.00;8.02;;;;;;;;;;5056744;28;20068;-47
2021/10/07 04:53:26;;;;;;;26.02;7.25;;;;;;;;;;5058927;28;20021;-54
2021/10/07 04:55:57;;;;;;;30.27;7.18;;;;;;;;;;5054173;28;20028;-43
2021/10/07 04:58:25;;;;;;;26.67;7.93;;;;;;;;;;5053729;28;20055;-44
2021/10/07 05:00:54;;;;;;;26.40;7.47;;;;;;;;;;5054110;28;20025;-43
2021/10/07 05:03:21;;;;;;;25.80;7.35;;;;;;;;;;5053949;28;20944;-46
2021/10/07 05:05:48;;;;;;;30.52;8.38;;;;;;;;;;5053592;28;20024;-42
2021/10/07 05:08:15;;;;;;;30.00;8.23;;;;;;;;;;5051772;28;20025;-41
2021/10/07 05:10:44;;;;;;;20.48;6.93;;;;;;;;;;5056767;28;20036;-44
2021/10/07 05:13:11;;;;;;;23.80;7.05;;;;;;;;;;5046457;28;20388;-44
2021/10/07 05:15:38;;;;;;;24.67;7.00;;;;;;;;;;5053861;28;20158;-42
2021/10/07 05:18:05;;;;;;;22.58;7.68;;;;;;;;;;5054140;28;20373;-42
2021/10/07 05:20:33;;;;;;;29.90;7.28;;;;;;;;;;5053269;28;20049;-41
2021/10/07 05:23:01;;;;;;;19.83;6.88;;;;;;;;;;5054336;28;20102;-41
2021/10/07 05:25:28;;;;;;;24.70;7.28;;;;;;;;;;5054347;28;20013;-43
2021/10/07 05:27:55;;;;;;;22.55;7.40;;;;;;;;;;5053512;28;20103;-45
2021/10/07 05:30:22;;;;;;;25.13;7.07;;;;;;;;;;5041661;28;20079;-41
2021/10/07 05:32:49;;;;;;;23.17;7.05;;;;;;;;;;5053693;28;20370;-43
2021/10/07 05:35:16;;;;;;;23.30;7.50;;;;;;;;;;5036214;28;20025;-41
2021/10/07 05:37:43;;;;;;;19.92;6.90;;;;;;;;;;5054614;28;20395;-41
2021/10/07 05:40:10;;;;;;;25.58;7.25;;;;;;;;;;5061309;28;20427;-42
2021/10/07 05:42:38;;;;;;;18.80;7.32;;;;;;;;;;5053617;28;20060;-41
2021/10/07 05:45:08;;;;;;;18.65;6.38;;;;;;;;;;5053501;28;20366;-41
2021/10/07 05:47:36;;;;;;;16.52;5.85;;;;;;;;;;5053404;28;20028;-41
2021/10/07 05:50:03;;;;;;;25.77;7.35;;;;;;;;;;5053683;28;20090;-42
2021/10/07 05:52:30;;;;;;;21.42;6.72;;;;;;;;;;5052869;28;20404;-43
2021/10/07 05:54:57;;;;;;;21.60;5.55;;;;;;;;;;5045180;28;20435;-44
2021/10/07 05:57:24;;;;;;;19.15;5.63;;;;;;;;;;5050060;28;20175;-42
2021/10/07 05:59:52;;;;;;;20.38;6.00;;;;;;;;;;5051806;28;20021;-41
2021/10/07 06:02:19;;;;;;;20.95;6.00;;;;;;;;;;5034801;28;20017;-44
2021/10/07 06:04:46;;;;;;;20.05;6.00;;;;;;;;;;5042847;28;20501;-43
2021/10/07 06:07:13;;;;;;;16.65;5.35;;;;;;;;;;5029401;28;20025;-43
2021/10/07 06:09:40;;;;;;;16.70;5.82;;;;;;;;;;5052113;28;20090;-45
2021/10/07 06:12:08;;;;;;;24.80;6.25;;;;;;;;;;5052888;28;20400;-42
2021/10/07 06:14:35;;;;;;;20.67;6.38;;;;;;;;;;5052264;28;20370;-42
2021/10/07 06:17:02;;;;;;;16.67;4.68;;;;;;;;;;5052656;28;20420;-42
2021/10/07 06:19:34;;;;;;;18.70;5.50;;;;;;;;;;5052737;28;20077;-42
2021/10/07 06:22:01;;;;;;;16.65;5.20;;;;;;;;;;5052764;28;20134;-42
2021/10/07 06:24:28;;;;;;;15.20;5.43;;;;;;;;;;5052770;28;20017;-42
2021/10/07 06:26:55;;;;;;;19.30;5.32;;;;;;;;;;5052145;28;20021;-42
2021/10/07 06:29:22;;;;;;;19.42;6.18;;;;;;;;;;5052704;28;20013;-42
2021/10/07 06:31:49;;;;;;;18.58;5.03;;;;;;;;;;5050908;28;20417;-44
2021/10/07 06:34:16;;;;;;;19.55;5.85;;;;;;;;;;5052598;28;20399;-42
2021/10/07 06:36:43;;;;;;;15.30;5.47;;;;;;;;;;5052078;28;20388;-42
2021/10/07 06:39:10;;;;;;;19.05;5.05;;;;;;;;;;5052384;28;20411;-41
2021/10/07 06:41:37;;;;;;;13.77;4.80;;;;;;;;;;5033842;28;20366;-43
2021/10/07 06:44:04;;;;;;;12.50;4.95;;;;;;;;;;5052529;28;20469;-42
2021/10/07 06:46:32;;;;;;;15.52;5.13;;;;;;;;;;5051551;28;20070;-42
2021/10/07 06:48:59;;;;;;;11.95;4.68;;;;;;;;;;5034067;28;20025;-42
2021/10/07 06:51:27;;;;;;;14.20;4.53;;;;;;;;;;5051930;28;20037;-45
2021/10/07 06:53:57;;;;;;;17.33;4.97;;;;;;;;;;5051934;28;20614;-42
2021/10/07 06:56:24;;;;;;;11.32;4.22;;;;;;;;;;5051641;28;20475;-41
2021/10/07 06:58:55;;;;;;;18.58;4.65;;;;;;;;;;5051895;28;20495;-44
2021/10/07 07:01:22;;;;;;;10.90;4.38;;;;;;;;;;5052186;28;20839;-47
2021/10/07 07:03:52;;;;;;;17.00;4.55;;;;;;;;;;5051530;28;20017;-43
2021/10/07 07:06:19;;;;;;;14.45;3.95;;;;;;;;;;5051809;28;20089;-43
2021/10/07 07:08:46;;;;;;;12.85;4.32;;;;;;;;;;5051582;28;20025;-44
2021/10/07 07:11:14;;;;;;;11.10;4.20;;;;;;;;;;5051543;28;20522;-44
2021/10/07 07:13:41;;;;;;;18.20;4.78;;;;;;;;;;5051015;28;20013;-44
2021/10/07 07:16:08;;;;;;;11.30;4.20;;;;;;;;;;5051833;28;20396;-43
2021/10/07 07:18:35;;;;;;;9.48;3.90;;;;;;;;;;5051250;28;20021;-43
2021/10/07 07:21:02;;;;;;;10.25;3.97;;;;;;;;;;5051255;28;20032;-42
2021/10/07 07:23:29;;;;;;;11.82;4.13;;;;;;;;;;5051117;28;20029;-41
2021/10/07 07:25:56;;;;;;;11.57;4.22;;;;;;;;;;5051313;28;20025;-44
2021/10/07 07:28:23;;;;;;;9.93;3.65;;;;;;;;;;5051082;28;20063;-42
2021/10/07 07:30:50;;;;;;;8.77;3.72;;;;;;;;;;5051092;28;20064;-45
2021/10/07 07:33:21;;;;;;;9.82;3.55;;;;;;;;;;5050911;28;20104;-46
2021/10/07 07:35:48;;;;;;;12.13;3.85;;;;;;;;;;5051403;28;20033;-44
2021/10/07 07:38:15;;;;;;;13.45;4.45;;;;;;;;;;5051509;28;20021;-41
2021/10/07 07:40:43;;;;;;;12.88;4.20;;;;;;;;;;5051050;28;20029;-42
2021/10/07 07:43:10;;;;;;;11.25;3.75;;;;;;;;;;5051023;28;20099;-44
2021/10/07 07:45:37;;;;;;;15.95;3.80;;;;;;;;;;5051226;28;20476;-46
2021/10/07 07:48:04;;;;;;;12.75;4.03;;;;;;;;;;5051322;28;20044;-42
2021/10/07 07:50:31;;;;;;;12.48;4.70;;;;;;;;;;5049412;28;20021;-42
2021/10/07 07:52:59;;;;;;;8.38;3.13;;;;;;;;;;5051585;28;20025;-45
2021/10/07 07:55:26;;;;;;;9.10;3.55;;;;;;;;;;5050804;28;20017;-42
2021/10/07 07:57:53;;;;;;;11.20;3.95;;;;;;;;;;5050890;28;20024;-44
2021/10/07 08:00:20;;;;;;;8.93;3.63;;;;;;;;;;5050604;28;20023;-45
2021/10/07 08:02:47;;;;;;;12.00;3.60;;;;;;;;;;5051305;28;20068;-43
2021/10/07 08:05:15;;;;;;;10.05;3.42;;;;;;;;;;5050658;28;20021;-43
2021/10/07 08:07:42;;;;;;;8.63;3.60;;;;;;;;;;5051136;28;20040;-53
2021/10/07 08:10:11;;;;;;;14.48;3.97;;;;;;;;;;5050516;28;20104;-45
2021/10/07 08:12:39;;;;;;;8.45;3.10;;;;;;;;;;5050740;28;20072;-50
2021/10/07 08:15:07;;;;;;;11.65;3.33;;;;;;;;;;5050410;28;20022;-44
2021/10/07 08:17:35;;;;;;;8.43;2.95;;;;;;;;;;5051260;28;20033;-55
2021/10/07 08:20:03;;;;;;;7.68;3.28;;;;;;;;;;5051270;28;20021;-42
2021/10/07 08:22:29;;;;;;;6.90;3.03;;;;;;;;;;5050692;28;20104;-42
2021/10/07 08:24:57;;;;;;;7.25;3.08;;;;;;;;;;5033364;28;20029;-43
2021/10/07 08:27:26;;;;;;;9.95;3.65;;;;;;;;;;5050288;28;20024;-42
2021/10/07 08:29:54;;;;;;;7.82;2.88;;;;;;;;;;5050706;28;20492;-44
2021/10/07 08:32:21;;;;;;;7.38;3.35;;;;;;;;;;5050373;28;20041;-42
2021/10/07 08:34:48;;;;;;;8.88;3.03;;;;;;;;;;5050905;28;20155;-42
2021/10/07 08:37:15;;;;;;;8.10;3.10;;;;;;;;;;5050573;28;20029;-44
2021/10/07 08:39:42;;;;;;;11.07;3.35;;;;;;;;;;5050982;28;20175;-41
2021/10/07 08:42:09;;;;;;;7.75;3.03;;;;;;;;;;5050146;28;20032;-42
2021/10/07 08:44:37;;;;;;;6.50;2.80;;;;;;;;;;5050790;28;20071;-42
2021/10/07 08:47:04;;;;;;;7.60;3.40;;;;;;;;;;5050386;28;20028;-43
2021/10/07 08:49:35;;;;;;;8.18;2.78;;;;;;;;;;5033276;28;20071;-42
2021/10/07 08:52:02;;;;;;;11.50;2.80;;;;;;;;;;5050016;28;20922;-42
2021/10/07 08:54:33;;;;;;;9.40;2.80;;;;;;;;;;5034071;28;20392;-44
2021/10/07 08:57:01;;;;;;;7.13;2.97;;;;;;;;;;5036610;28;20044;-41
2021/10/07 08:59:29;;;;;;;7.40;2.70;;;;;;;;;;5053934;28;20021;-42
2021/10/07 09:01:58;;;;;;;7.35;2.63;;;;;;;;;;5053896;28;20031;-43
2021/10/07 09:04:26;;;;;;;8.10;2.78;;;;;;;;;;5053622;28;20092;-43
2021/10/07 09:07:07;;;;;;;9.60;2.80;;;;;;;;;;5053891;28;20468;-44
2021/10/07 09:09:35;;;;;;;5.90;2.72;;;;;;;;;;5053380;28;20071;-42
2021/10/07 09:12:04;;;;;;;8.57;2.75;;;;;;;;;;5053694;28;20033;-43
2021/10/07 09:14:35;;;;;;;8.05;2.90;;;;;;;;;;5053639;28;20056;-43
2021/10/07 09:17:03;;;;;;;8.13;2.50;;;;;;;;;;5054321;28;20025;-42
2021/10/07 09:19:40;;;;;;;7.05;2.80;;;;;;;;;;5054247;28;20388;-43
2021/10/07 09:22:22;;;;;;;7.18;2.60;;;;;;;;;;5054350;28;20033;-44
2021/10/07 09:24:51;;;;;;;6.38;2.35;;;;;;;;;;5053604;28;20354;-42
2021/10/07 09:27:20;;;;;;;7.15;2.60;;;;;;;;;;5054872;28;20071;-45
2021/10/07 09:30:01;;;;;;;5.68;2.40;;;;;;;;;;5053412;28;20721;-43
2021/10/07 09:32:31;;;;;;;8.13;2.17;;;;;;;;;;5053682;28;20094;-42
2021/10/07 09:35:02;;;;;;;7.53;2.58;;;;;;;;;;5053714;28;20598;-41
2021/10/07 09:37:30;;;;;;;6.13;2.20;;;;;;;;;;5036486;28;20029;-42
2021/10/07 09:40:06;;;;;;;7.32;2.80;;;;;;;;;;5053906;28;20468;-41
2021/10/07 09:42:35;;;;;;;6.25;2.50;;;;;;;;;;5053468;28;20381;-46
2021/10/07 09:45:07;;;;;;;6.38;2.05;;;;;;;;;;5053407;28;20377;-42
2021/10/07 09:47:36;;;;;;;7.25;2.22;;;;;;;;;;5053120;28;20358;-42
2021/10/07 09:50:13;;;;;;;5.32;2.40;;;;;;;;;;5053701;28;20423;-42
2021/10/07 09:52:41;;;;;;;6.03;2.13;;;;;;;;;;5053377;28;20119;-42
2021/10/07 09:55:19;;;;;;;6.20;2.20;;;;;;;;;;5053301;28;20090;-43
2021/10/07 09:57:49;;;;;;;7.40;2.20;;;;;;;;;;5053158;28;20723;-42
2021/10/07 10:00:17;;;;;;;3.88;1.80;;;;;;;;;;5053330;28;20032;-43
2021/10/07 10:02:44;;;;;;;6.60;2.20;;;;;;;;;;5052948;28;20377;-42
2021/10/07 10:05:13;;;;;;;4.00;1.80;;;;;;;;;;5053118;28;20021;-42
2021/10/07 10:07:44;;;;;;;4.95;1.77;;;;;;;;;;5052679;28;20416;-43
2021/10/07 10:10:12;;;;;;;6.47;1.73;;;;;;;;;;5051845;28;20062;-43
2021/10/07 10:12:40;;;;;;;4.80;1.80;;;;;;;;;;5049581;28;20039;-40
2021/10/07 10:15:08;;;;;;;7.93;1.73;;;;;;;;;;5051939;28;20361;-41
2021/10/07 10:17:35;;;;;;;7.47;1.63;;;;;;;;;;5051469;28;20079;-39
2021/10/07 10:20:04;;;;;;;7.85;2.05;;;;;;;;;;5051016;28;20426;-40
2021/10/07 10:22:31;;;;;;;6.47;1.85;;;;;;;;;;5051876;28;20204;-40
2021/10/07 10:24:59;;;;;;;5.22;1.60;;;;;;;;;;5051707;28;20389;-40
2021/10/07 10:27:26;;;;;;;5.47;1.80;;;;;;;;;;5052083;28;20496;-52
2021/10/07 10:30:12;;;;;;;6.10;1.52;;;;;;;;;;5050618;28;20037;-44
2021/10/07 10:32:42;;;;;;;11.10;1.73;;;;;;;;;;5051563;28;20570;-42
2021/10/07 10:35:28;;;;;;;7.65;1.60;;;;;;;;;;5051684;28;20487;-41
2021/10/07 10:37:56;;;;;;;5.00;1.58;;;;;;;;;;5052070;28;20028;-44
2021/10/07 10:40:24;;;;;;;8.10;1.60;;;;;;;;;;5032552;28;20029;-46
2021/10/07 10:43:10;;;;;;;6.35;1.60;;;;;;;;;;5050928;28;20048;-42
2021/10/07 10:45:45;;;;;;;5.90;1.73;;;;;;;;;;5050737;28;20370;-48
2021/10/07 10:48:12;;;;;;;7.00;1.40;;;;;;;;;;5051838;28;20039;-45
2021/10/07 10:50:39;;;;;;;4.80;1.55;;;;;;;;;;5050907;28;20411;-47
2021/10/07 10:53:24;;;;;;;6.03;1.60;;;;;;;;;;5051323;28;20480;-45
2021/10/07 10:55:51;;;;;;;3.45;1.20;;;;;;;;;;5051509;28;20400;-48
2021/10/07 10:58:18;;;;;;;5.65;1.58;;;;;;;;;;5052077;28;20456;-45
2021/10/07 11:00:48;;;;;;;7.15;1.83;;;;;;;;;;5051150;28;20492;-46
2021/10/07 11:03:15;;;;;;;6.15;1.92;;;;;;;;;;5050410;28;20025;-43
2021/10/07 11:06:01;;;;;;;5.53;1.70;;;;;;;;;;5051178;28;20039;-43
2021/10/07 11:08:28;;;;;;;4.05;1.35;;;;;;;;;;5051540;28;20484;-42
2021/10/07 11:10:57;;;;;;;7.05;1.65;;;;;;;;;;5050130;28;20480;-45
2021/10/07 11:13:25;;;;;;;19.77;2.20;;;;;;;;;;5048824;28;20480;-44
2021/10/07 11:15:57;;;;;;;15.50;2.00;;;;;;;;;;5050077;28;20040;-53
2021/10/07 11:18:35;;;;;;;20.83;2.30;;;;;;;;;;5043294;28;20422;-48
2021/10/07 11:21:15;;;;;;;31.27;2.20;;;;;;;;;;5047617;28;20068;-47
2021/10/07 11:23:46;;;;;;;15.55;1.92;;;;;;;;;;5047589;28;20036;-52
2021/10/07 11:26:13;;;;;;;188.90;13.43;;;;;;;;;;5050182;28;20112;-43
2021/10/07 11:28:45;;;;;;;85.85;6.07;;;;;;;;;;5048924;28;20112;-44
2021/10/07 11:31:13;;;;;;;65.05;6.35;;;;;;;;;;5050265;28;20495;-48
2021/10/07 11:33:42;;;;;;;63.30;5.72;;;;;;;;;;5050372;28;20047;-52
2021/10/07 11:36:11;;;;;;;34.15;4.18;;;;;;;;;;5049794;28;20032;-49
2021/10/07 11:38:39;;;;;;;33.63;2.92;;;;;;;;;;5049978;28;20033;-49
2021/10/07 11:41:06;;;;;;;23.25;2.90;;;;;;;;;;5050311;28;20074;-52
2021/10/07 11:43:35;;;;;;;24.75;3.05;;;;;;;;;;5050162;28;20025;-51
2021/10/07 11:46:04;;;;;;;41.25;3.20;;;;;;;;;;5047820;28;20381;-53
2021/10/07 11:48:31;;;;;;;37.00;3.30;;;;;;;;;;5049004;28;20057;-48
2021/10/07 11:50:59;;;;;;;25.50;3.00;;;;;;;;;;5048948;28;21104;-49
2021/10/07 11:53:29;;;;;;;24.65;2.78;;;;;;;;;;5049670;28;20029;-53
2021/10/07 11:55:56;;;;;;;22.77;2.88;;;;;;;;;;5050991;28;20056;-57
2021/10/07 11:58:26;;;;;;;27.60;3.40;;;;;;;;;;5053555;28;20016;-48
2021/10/07 12:00:54;;;;;;;35.03;3.25;;;;;;;;;;5049322;28;20021;-47
2021/10/07 12:03:22;;;;;;;43.05;4.35;;;;;;;;;;5050808;28;20148;-50
2021/10/07 12:05:53;;;;;;;42.00;3.42;;;;;;;;;;5050023;28;20029;-51
2021/10/07 12:08:21;;;;;;;32.90;3.53;;;;;;;;;;5050236;28;20082;-46
2021/10/07 12:10:49;;;;;;;30.35;3.10;;;;;;;;;;5030424;28;20052;-53
2021/10/07 12:13:18;;;;;;;30.10;3.60;;;;;;;;;;5030341;28;20084;-48
2021/10/07 12:15:47;;;;;;;35.60;4.35;;;;;;;;;;5029929;28;20675;-57
2021/10/07 12:18:15;;;;;;;31.98;3.03;;;;;;;;;;5038564;28;20465;-49
2021/10/07 12:20:55;;;;;;;25.35;2.60;;;;;;;;;;5048967;28;20029;-50
2021/10/07 12:23:22;;;;;;;23.83;3.08;;;;;;;;;;5048482;28;20033;-51
2021/10/07 12:25:54;;;;;;;28.10;3.08;;;;;;;;;;5032043;28;20419;-45
2021/10/07 12:28:21;;;;;;;15.48;2.67;;;;;;;;;;5032729;28;20388;-47
2021/10/07 12:31:02;;;;;;;28.67;2.92;;;;;;;;;;5051786;28;20615;-46
2021/10/07 12:33:31;;;;;;;37.35;2.80;;;;;;;;;;5052046;28;20427;-45
2021/10/07 12:36:14;;;;;;;26.33;2.72;;;;;;;;;;5053994;28;20070;-59
2021/10/07 12:38:49;;;;;;;26.70;3.28;;;;;;;;;;5053820;28;20371;-44
2021/10/07 12:41:17;;;;;;;21.92;2.53;;;;;;;;;;5054317;28;20033;-44
2021/10/07 12:43:54;;;;;;;25.35;2.45;;;;;;;;;;5053356;28;20652;-47
2021/10/07 12:46:21;;;;;;;15.88;1.92;;;;;;;;;;5053673;28;20423;-46
2021/10/07 12:48:59;;;;;;;17.52;2.00;;;;;;;;;;5053141;28;20060;-46
2021/10/07 12:51:27;;;;;;;26.30;2.83;;;;;;;;;;5054039;28;20427;-48
2021/10/07 12:53:55;;;;;;;14.75;2.03;;;;;;;;;;5049915;28;20025;-51
2021/10/07 12:56:29;;;;;;;23.83;2.08;;;;;;;;;;5032851;28;20105;-46
2021/10/07 12:59:04;;;;;;;13.63;2.13;;;;;;;;;;5044706;28;20477;-45
2021/10/07 13:01:38;;;;;;;19.08;2.10;;;;;;;;;;5053118;28;20088;-45
2021/10/07 13:04:20;;;;;;;23.85;2.50;;;;;;;;;;5050472;28;20013;-44
2021/10/07 13:06:48;;;;;;;31.27;2.40;;;;;;;;;;5050665;28;20020;-46
2021/10/07 13:09:16;;;;;;;21.23;2.53;;;;;;;;;;5053568;28;20021;-46
2021/10/07 13:11:43;;;;;;;16.25;1.77;;;;;;;;;;5068780;28;20039;-53
2021/10/07 13:14:13;;;;;;;36.00;2.33;;;;;;;;;;5052887;28;20041;-47
2021/10/07 13:16:40;;;;;;;48.45;2.47;;;;;;;;;;5051486;28;20033;-45
2021/10/07 13:19:07;;;;;;;15.98;1.85;;;;;;;;;;5052874;28;20029;-46
2021/10/07 13:21:34;;;;;;;12.27;1.85;;;;;;;;;;5052604;28;20033;-46
2021/10/07 13:24:02;;;;;;;21.98;2.13;;;;;;;;;;5052970;28;20381;-46
2021/10/07 13:26:35;;;;;;;15.50;1.70;;;;;;;;;;5052478;28;20025;-54
2021/10/07 13:29:03;;;;;;;19.23;1.95;;;;;;;;;;5028021;28;20447;-45
2021/10/07 13:31:30;;;;;;;21.38;2.03;;;;;;;;;;5052251;28;20499;-46
2021/10/07 13:33:57;;;;;;;20.52;2.75;;;;;;;;;;5053635;28;20031;-49
2021/10/07 13:36:25;;;;;;;8.43;1.48;;;;;;;;;;5053319;28;20075;-44
2021/10/07 13:38:52;;;;;;;10.30;1.60;;;;;;;;;;5051568;28;20104;-46
2021/10/07 13:41:19;;;;;;;17.10;1.92;;;;;;;;;;5052555;28;20389;-47
2021/10/07 13:43:46;;;;;;;17.98;1.70;;;;;;;;;;5052236;28;20052;-44
2021/10/07 13:46:14;;;;;;;15.63;1.88;;;;;;;;;;5052925;28;20370;-44
2021/10/07 13:48:41;;;;;;;14.73;1.73;;;;;;;;;;5052262;28;20455;-44
2021/10/07 13:51:09;;;;;;;17.70;1.48;;;;;;;;;;5040616;28;20113;-46
2021/10/07 13:53:36;;;;;;;14.65;1.80;;;;;;;;;;5032000;28;20440;-54
2021/10/07 13:56:03;;;;;;;15.75;2.03;;;;;;;;;;5032707;28;20043;-54
2021/10/07 13:58:30;;;;;;;13.68;1.52;;;;;;;;;;5032931;28;20037;-56
2021/10/07 14:00:57;;;;;;;18.83;1.98;;;;;;;;;;5031748;28;20104;-53
2021/10/07 14:03:24;;;;;;;16.08;1.48;;;;;;;;;;5032912;28;20477;-45
2021/10/07 14:05:51;;;;;;;19.25;1.92;;;;;;;;;;5014543;28;20393;-53
2021/10/07 14:08:18;;;;;;;18.90;2.30;;;;;;;;;;5014105;28;20034;-54
2021/10/07 14:10:46;;;;;;;12.75;1.85;;;;;;;;;;5030817;28;20373;-54
2021/10/07 14:13:15;;;;;;;15.70;1.85;;;;;;;;;;5032305;28;20477;-52
2021/10/07 14:15:42;;;;;;;24.00;2.13;;;;;;;;;;5049021;28;20036;-50
2021/10/07 14:18:09;;;;;;;18.35;2.72;;;;;;;;;;5051345;28;20373;-46
2021/10/07 14:20:37;;;;;;;17.30;2.17;;;;;;;;;;5051079;28;20024;-57
2021/10/07 14:23:04;;;;;;;17.48;2.00;;;;;;;;;;5050343;28;20453;-51
2021/10/07 14:25:31;;;;;;;24.33;2.50;;;;;;;;;;5051414;28;20120;-54
2021/10/07 14:28:03;;;;;;;22.65;2.15;;;;;;;;;;5051551;28;20052;-56
2021/10/07 14:30:30;;;;;;;16.83;2.27;;;;;;;;;;5051171;28;20072;-61
2021/10/07 14:32:57;;;;;;;19.85;3.05;;;;;;;;;;5050116;28;20443;-47
2021/10/07 14:35:24;;;;;;;23.00;2.22;;;;;;;;;;5052429;28;20104;-47
2021/10/07 14:37:51;;;;;;;24.80;2.03;;;;;;;;;;5033480;28;20404;-44
2021/10/07 14:40:21;;;;;;;20.52;2.45;;;;;;;;;;5051066;28;20033;-48
2021/10/07 14:42:49;;;;;;;17.38;2.42;;;;;;;;;;5049239;28;20556;-55
2021/10/07 14:45:16;;;;;;;12.10;2.17;;;;;;;;;;5050879;28;20021;-47